createdAt,value
2018-12-20T00:02:01.491Z,12.92
2018-12-20T00:04:29.889Z,12.53
2018-12-20T00:06:58.158Z,12.48
2018-12-20T00:09:26.470Z,12.53
2018-12-20T00:11:54.937Z,13.02
2018-12-20T00:14:29.749Z,12.70
2018-12-20T00:16:59.095Z,12.15
2018-12-20T00:19:27.408Z,12.96
2018-12-20T00:21:55.755Z,12.72
2018-12-20T00:24:24.157Z,13.15
2018-12-20T00:26:52.613Z,12.17
2018-12-20T00:29:21.084Z,12.02
2018-12-20T00:31:49.483Z,12.69
2018-12-20T00:34:18.151Z,12.67
2018-12-20T00:36:46.822Z,12.78
2018-12-20T00:39:15.202Z,12.50
2018-12-20T00:41:43.670Z,12.81
2018-12-20T00:44:11.978Z,13.17
2018-12-20T00:46:40.320Z,12.61
2018-12-20T00:49:08.810Z,12.61
2018-12-20T00:51:37.153Z,13.10
2018-12-20T00:54:05.457Z,12.81
2018-12-20T00:56:33.943Z,12.30
2018-12-20T00:59:02.244Z,12.17
2018-12-20T01:01:30.672Z,11.96
2018-12-20T01:03:58.984Z,12.41
2018-12-20T01:06:27.396Z,12.56
2018-12-20T01:08:55.876Z,12.96
2018-12-20T01:11:24.442Z,13.26
2018-12-20T01:13:53.009Z,12.32
2018-12-20T01:16:21.348Z,13.20
2018-12-20T01:18:49.836Z,13.49
2018-12-20T01:21:18.485Z,13.39
2018-12-20T01:23:46.961Z,12.99
2018-12-20T01:26:15.381Z,13.05
2018-12-20T01:28:44.032Z,13.11
2018-12-20T01:31:12.494Z,13.34
2018-12-20T01:33:40.818Z,12.96
2018-12-20T01:36:09.353Z,12.83
2018-12-20T01:38:37.770Z,12.25
2018-12-20T01:41:06.285Z,11.67
2018-12-20T01:43:34.832Z,11.73
2018-12-20T01:46:03.330Z,11.82
2018-12-20T01:48:31.861Z,11.95
2018-12-20T01:51:00.277Z,12.55
2018-12-20T01:53:28.636Z,10.98
2018-12-20T01:55:57.297Z,11.90
2018-12-20T01:58:25.937Z,11.95
2018-12-20T02:00:54.530Z,12.55
2018-12-20T02:03:23.277Z,12.46
2018-12-20T02:05:51.627Z,12.52
2018-12-20T02:08:19.927Z,12.70
2018-12-20T02:10:48.263Z,13.07
2018-12-20T02:13:16.925Z,13.09
2018-12-20T02:15:45.300Z,12.64
2018-12-20T02:18:13.796Z,12.90
2018-12-20T02:20:42.312Z,12.76
2018-12-20T02:23:10.657Z,12.62
2018-12-20T02:25:39.237Z,12.52
2018-12-20T02:28:08.148Z,12.51
2018-12-20T02:30:36.593Z,12.63
2018-12-20T02:33:05.049Z,12.52
2018-12-20T02:35:33.365Z,12.34
2018-12-20T02:38:01.716Z,12.88
2018-12-20T02:40:30.148Z,13.01
2018-12-20T02:42:58.520Z,12.70
2018-12-20T02:45:26.801Z,12.77
2018-12-20T02:47:55.094Z,12.61
2018-12-20T02:50:23.664Z,12.63
2018-12-20T02:52:52.013Z,12.17
2018-12-20T02:55:20.354Z,12.24
2018-12-20T02:57:48.765Z,11.84
2018-12-20T03:00:17.185Z,11.66
2018-12-20T03:02:45.677Z,11.46
2018-12-20T03:05:14.018Z,11.59
2018-12-20T03:07:42.461Z,11.25
2018-12-20T03:10:10.888Z,10.79
2018-12-20T03:12:39.636Z,11.18
2018-12-20T03:15:08.157Z,11.69
2018-12-20T03:17:36.463Z,11.92
2018-12-20T03:20:05.814Z,10.93
2018-12-20T03:22:34.478Z,11.74
2018-12-20T03:25:02.966Z,11.46
2018-12-20T03:27:31.384Z,11.69
2018-12-20T03:29:59.835Z,11.65
2018-12-20T03:32:28.217Z,11.04
2018-12-20T03:34:56.804Z,11.42
2018-12-20T03:37:25.214Z,11.19
2018-12-20T03:39:53.530Z,11.17
2018-12-20T03:42:22.073Z,11.40
2018-12-20T03:44:50.640Z,12.00
2018-12-20T03:47:19.408Z,11.78
2018-12-20T03:49:47.997Z,11.14
2018-12-20T03:52:16.539Z,11.41
2018-12-20T03:54:45.224Z,11.53
2018-12-20T03:57:13.690Z,11.57
2018-12-20T03:59:42.413Z,11.16
2018-12-20T04:02:10.928Z,10.58
2018-12-20T04:04:39.522Z,10.30
2018-12-20T04:07:07.945Z,10.49
2018-12-20T04:09:36.328Z,10.27
2018-12-20T04:12:04.666Z,10.61
2018-12-20T04:14:33.107Z,10.07
2018-12-20T04:17:01.403Z,10.92
2018-12-20T04:19:29.899Z,10.35
2018-12-20T04:21:58.843Z,10.87
2018-12-20T04:24:27.482Z,10.70
2018-12-20T04:26:55.769Z,10.22
2018-12-20T04:29:24.004Z,10.58
2018-12-20T04:31:52.791Z,10.74
2018-12-20T04:34:21.183Z,11.36
2018-12-20T04:36:50.090Z,10.93
2018-12-20T04:39:18.487Z,11.52
2018-12-20T04:41:47.027Z,11.17
2018-12-20T04:44:15.625Z,11.05
2018-12-20T04:46:43.961Z,11.00
2018-12-20T04:49:12.567Z,11.70
2018-12-20T04:51:41.019Z,11.50
2018-12-20T04:54:09.403Z,11.44
2018-12-20T04:56:37.977Z,11.36
2018-12-20T04:59:06.734Z,11.40
2018-12-20T05:01:35.200Z,11.62
2018-12-20T05:04:03.623Z,11.45
2018-12-20T05:06:32.259Z,11.36
2018-12-20T05:09:00.538Z,10.98
2018-12-20T05:11:29.356Z,10.79
2018-12-20T05:13:57.844Z,11.29
2018-12-20T05:16:26.405Z,11.75
2018-12-20T05:18:54.985Z,11.09
2018-12-20T05:21:23.725Z,11.62
2018-12-20T05:23:52.338Z,10.90
2018-12-20T05:26:20.863Z,10.77
2018-12-20T05:28:49.308Z,11.46
2018-12-20T05:31:17.639Z,11.13
2018-12-20T05:33:46.188Z,11.02
2018-12-20T05:36:14.537Z,11.29
2018-12-20T05:38:43.026Z,11.07
2018-12-20T05:41:11.407Z,10.22
2018-12-20T05:43:40.030Z,10.52
2018-12-20T05:46:08.671Z,11.37
2018-12-20T05:48:37.277Z,10.89
2018-12-20T05:51:05.615Z,10.85
2018-12-20T05:53:34.036Z,10.94
2018-12-20T05:56:02.518Z,11.11
2018-12-20T05:58:30.909Z,11.28
2018-12-20T06:00:59.343Z,10.54
2018-12-20T06:03:27.855Z,10.98
2018-12-20T06:05:56.350Z,10.84
2018-12-20T06:08:24.877Z,10.72
2018-12-20T06:10:53.391Z,10.92
2018-12-20T06:13:21.996Z,10.55
2018-12-20T06:15:50.692Z,10.51
2018-12-20T06:18:19.218Z,10.78
2018-12-20T06:20:47.694Z,10.99
2018-12-20T06:23:16.279Z,10.91
2018-12-20T06:25:44.831Z,11.04
2018-12-20T06:28:13.438Z,10.76
2018-12-20T06:30:42.653Z,11.34
2018-12-20T06:33:11.060Z,10.81
2018-12-20T06:35:39.333Z,10.69
2018-12-20T06:38:07.609Z,10.69
2018-12-20T06:43:26.850Z,10.79
2018-12-20T06:45:55.323Z,10.85
2018-12-20T06:48:23.719Z,10.35
2018-12-20T06:50:51.992Z,10.48
2018-12-20T06:53:20.387Z,10.97
2018-12-20T06:55:48.860Z,10.81
2018-12-20T07:01:08.446Z,11.01
2018-12-20T07:03:36.803Z,11.80
2018-12-20T07:06:05.336Z,11.30
2018-12-20T07:08:33.941Z,10.96
2018-12-20T07:11:02.380Z,11.37
2018-12-20T07:13:30.900Z,11.21
2018-12-20T07:15:59.279Z,11.17
2018-12-20T07:18:27.481Z,11.12
2018-12-20T07:20:55.772Z,11.46
2018-12-20T07:23:24.273Z,11.46
2018-12-20T07:25:52.924Z,11.34
2018-12-20T07:28:21.546Z,12.27
2018-12-20T07:30:50.373Z,11.83
2018-12-20T07:33:19.023Z,12.09
2018-12-20T07:35:47.425Z,11.82
2018-12-20T07:38:15.779Z,12.30
2018-12-20T07:40:44.102Z,12.23
2018-12-20T07:43:12.375Z,11.67
2018-12-20T07:45:41.504Z,11.85
2018-12-20T07:48:09.885Z,11.68
2018-12-20T07:50:39.178Z,12.16
2018-12-20T07:53:07.611Z,12.53
2018-12-20T07:55:36.079Z,12.58
2018-12-20T07:58:04.332Z,11.74
2018-12-20T08:00:34.672Z,12.63
2018-12-20T08:03:03.168Z,12.41
2018-12-20T08:05:31.531Z,12.49
2018-12-20T08:07:59.921Z,12.65
2018-12-20T08:10:28.938Z,12.72
2018-12-20T08:12:57.285Z,13.01
2018-12-20T08:15:25.659Z,12.50
2018-12-20T08:17:54.060Z,12.79
2018-12-20T08:20:22.460Z,12.78
2018-12-20T08:22:50.709Z,12.68
2018-12-20T08:25:19.084Z,13.20
2018-12-20T08:27:47.320Z,12.84
2018-12-20T08:30:15.597Z,12.59
2018-12-20T08:32:44.153Z,11.74
2018-12-20T08:35:12.641Z,12.18
2018-12-20T08:37:40.948Z,11.58
2018-12-20T08:40:10.411Z,11.91
2018-12-20T08:42:38.783Z,12.13
2018-12-20T08:45:07.266Z,11.35
2018-12-20T08:47:35.529Z,11.65
2018-12-20T08:50:04.049Z,11.16
2018-12-20T08:52:32.555Z,11.51
2018-12-20T08:55:00.937Z,11.90
2018-12-20T08:57:29.248Z,11.69
2018-12-20T08:59:57.607Z,11.37
2018-12-20T09:02:26.008Z,11.77
2018-12-20T09:04:54.486Z,11.67
2018-12-20T09:07:22.978Z,11.28
2018-12-20T09:09:51.536Z,11.50
2018-12-20T09:12:20.463Z,11.27
2018-12-20T09:14:48.878Z,11.61
2018-12-20T09:17:17.176Z,11.50
2018-12-20T09:19:46.465Z,11.44
2018-12-20T09:22:14.912Z,11.92
2018-12-20T09:24:43.361Z,11.36
2018-12-20T09:27:11.664Z,12.09
2018-12-20T09:29:39.994Z,12.13
2018-12-20T09:32:08.343Z,11.80
2018-12-20T09:34:36.707Z,11.51
2018-12-20T09:37:05.103Z,11.62
2018-12-20T09:39:33.469Z,11.72
2018-12-20T09:42:01.764Z,11.78
2018-12-20T09:44:30.069Z,11.40
2018-12-20T09:47:11.400Z,11.62
2018-12-20T09:49:33.989Z,11.41
2018-12-20T09:52:02.234Z,11.84
2018-12-20T09:54:30.685Z,11.82
2018-12-20T09:56:58.984Z,11.61
2018-12-20T09:59:27.243Z,11.54
2018-12-20T10:01:55.471Z,11.49
2018-12-20T10:04:23.833Z,11.94
2018-12-20T10:06:52.138Z,11.92
2018-12-20T10:09:20.732Z,12.34
2018-12-20T10:11:49.134Z,11.90
2018-12-20T10:14:17.454Z,12.64
2018-12-20T10:16:46.070Z,12.81
2018-12-20T10:19:14.538Z,12.22
2018-12-20T10:21:42.872Z,12.82
2018-12-20T10:24:11.153Z,12.69
2018-12-20T10:26:39.559Z,12.77
2018-12-20T10:29:07.906Z,12.69
2018-12-20T10:31:36.221Z,12.58
2018-12-20T10:34:04.538Z,12.77
2018-12-20T10:36:32.825Z,13.17
2018-12-20T10:39:01.156Z,12.62
2018-12-20T10:41:29.518Z,12.02
2018-12-20T10:43:57.897Z,13.34
2018-12-20T10:46:26.246Z,14.05
2018-12-20T10:48:54.635Z,13.20
2018-12-20T10:51:23.214Z,12.96
2018-12-20T10:53:51.458Z,12.83
2018-12-20T10:56:19.789Z,13.40
2018-12-20T10:58:48.066Z,14.19
2018-12-20T11:01:21.782Z,12.80
2018-12-20T11:03:52.867Z,13.57
2018-12-20T11:06:26.463Z,13.41
2018-12-20T11:09:00.069Z,12.61
2018-12-20T11:11:32.598Z,12.49
2018-12-20T11:14:01.235Z,12.93
2018-12-20T11:16:29.514Z,12.18
2018-12-20T11:18:57.798Z,12.23
2018-12-20T11:21:26.156Z,12.14
2018-12-20T11:23:54.546Z,12.64
2018-12-20T11:26:22.844Z,12.35
2018-12-20T11:28:51.186Z,12.59
2018-12-20T11:31:19.458Z,12.12
2018-12-20T11:33:47.750Z,12.64
2018-12-20T11:36:16.124Z,12.56
2018-12-20T11:38:44.489Z,12.19
2018-12-20T11:41:12.806Z,11.64
2018-12-20T11:43:41.093Z,12.11
2018-12-20T11:46:09.365Z,12.41
2018-12-20T11:48:37.932Z,12.24
2018-12-20T11:51:06.238Z,13.23
2018-12-20T11:53:34.618Z,12.55
2018-12-20T11:56:02.948Z,12.63
2018-12-20T11:58:31.216Z,12.84
2018-12-20T12:00:59.510Z,12.56
2018-12-20T12:03:27.815Z,12.73
2018-12-20T12:05:56.114Z,11.98
2018-12-20T12:08:24.459Z,12.46
2018-12-20T12:10:52.723Z,11.92
2018-12-20T12:13:21.070Z,12.91
2018-12-20T12:15:49.366Z,12.05
2018-12-20T12:18:17.657Z,11.96
2018-12-20T12:20:45.963Z,11.90
2018-12-20T12:23:14.352Z,13.34
2018-12-20T12:25:42.644Z,12.95
2018-12-20T12:28:11.078Z,13.07
2018-12-20T12:30:39.403Z,12.60
2018-12-20T12:33:07.712Z,12.62
2018-12-20T12:35:36.838Z,12.55
2018-12-20T12:38:05.207Z,12.82
2018-12-20T12:40:33.562Z,12.10
2018-12-20T12:43:01.825Z,13.22
2018-12-20T12:45:30.151Z,12.33
2018-12-20T12:48:03.759Z,12.38
2018-12-20T12:50:30.174Z,12.57
2018-12-20T12:52:58.497Z,12.59
2018-12-20T12:55:26.780Z,13.08
2018-12-20T12:57:55.216Z,12.84
2018-12-20T13:00:23.520Z,12.92
2018-12-20T13:02:51.868Z,12.86
2018-12-20T13:05:20.258Z,12.99
2018-12-20T13:07:48.565Z,12.99
2018-12-20T13:10:16.899Z,12.98
2018-12-20T13:12:45.253Z,12.45
2018-12-20T13:15:13.693Z,13.09
2018-12-20T13:17:41.991Z,13.67
2018-12-20T13:20:11.214Z,14.26
2018-12-20T13:22:39.450Z,14.73
2018-12-20T13:25:08.407Z,16.32
2018-12-20T13:27:36.937Z,16.79
2018-12-20T13:30:09.246Z,15.78
2018-12-20T13:32:37.740Z,16.04
2018-12-20T13:35:06.285Z,15.92
2018-12-20T13:37:34.614Z,16.64
2018-12-20T13:40:02.938Z,16.75
2018-12-20T13:42:31.446Z,16.68
2018-12-20T13:44:59.841Z,16.30
2018-12-20T13:47:28.189Z,15.14
2018-12-20T13:49:56.619Z,15.37
2018-12-20T13:52:25.030Z,14.97
2018-12-20T13:54:53.345Z,16.08
2018-12-20T13:57:21.784Z,14.42
2018-12-20T13:59:50.076Z,14.49
2018-12-20T14:02:18.389Z,15.35
2018-12-20T14:04:46.794Z,14.71
2018-12-20T14:07:15.085Z,14.17
2018-12-20T14:09:43.413Z,14.04
2018-12-20T14:12:11.740Z,14.27
2018-12-20T14:14:40.224Z,14.21
2018-12-20T14:17:08.612Z,14.56
2018-12-20T14:19:36.914Z,15.00
2018-12-20T14:22:05.297Z,15.95
2018-12-20T14:24:33.630Z,15.86
2018-12-20T14:27:02.130Z,15.53
2018-12-20T14:29:30.582Z,15.45
2018-12-20T14:31:59.017Z,15.52
2018-12-20T14:34:27.334Z,16.53
2018-12-20T14:36:55.702Z,14.71
2018-12-20T14:39:24.200Z,14.48
2018-12-20T14:41:52.549Z,14.30
2018-12-20T14:44:20.976Z,13.82
2018-12-20T14:46:49.289Z,13.98
2018-12-20T14:49:17.712Z,13.88
2018-12-20T14:51:46.074Z,13.73
2018-12-20T14:54:14.618Z,13.57
2018-12-20T14:56:43.054Z,13.66
2018-12-20T14:59:11.379Z,14.20
2018-12-20T15:01:39.853Z,14.08
2018-12-20T15:04:08.119Z,13.13
2018-12-20T15:06:36.688Z,14.22
2018-12-20T15:09:07.570Z,13.44
2018-12-20T15:11:36.046Z,12.65
2018-12-20T15:14:04.609Z,13.40
2018-12-20T15:16:32.959Z,13.39
2018-12-20T15:19:01.376Z,12.61
2018-12-20T15:21:29.672Z,12.95
2018-12-20T15:23:58.028Z,13.32
2018-12-20T15:26:26.321Z,12.58
2018-12-20T15:28:54.749Z,12.92
2018-12-20T15:31:23.291Z,12.46
2018-12-20T15:33:51.846Z,13.33
2018-12-20T15:36:20.336Z,12.50
2018-12-20T15:38:49.822Z,13.19
2018-12-20T15:41:18.474Z,12.39
2018-12-20T15:43:46.750Z,12.74
2018-12-20T15:46:15.189Z,13.07
2018-12-20T15:48:43.680Z,12.90
2018-12-20T15:51:12.323Z,12.32
2018-12-20T15:53:40.714Z,12.17
2018-12-20T15:56:08.997Z,12.21
2018-12-20T15:58:37.465Z,11.86
2018-12-20T16:01:05.735Z,11.96
2018-12-20T16:03:33.990Z,11.91
2018-12-20T16:06:02.290Z,11.70
2018-12-20T16:08:30.611Z,11.97
2018-12-20T16:10:59.074Z,11.85
2018-12-20T16:13:27.470Z,11.14
2018-12-20T16:15:55.905Z,12.14
2018-12-20T16:18:24.697Z,12.04
2018-12-20T16:20:52.952Z,11.65
2018-12-20T16:23:21.531Z,11.78
2018-12-20T16:25:49.910Z,11.53
2018-12-20T16:28:18.562Z,11.39
2018-12-20T16:30:46.997Z,11.94
2018-12-20T16:33:15.371Z,11.42
2018-12-20T16:35:43.680Z,11.72
2018-12-20T16:38:12.099Z,12.37
2018-12-20T16:40:40.384Z,12.55
2018-12-20T16:43:08.879Z,11.97
2018-12-20T16:45:37.498Z,12.03
2018-12-20T16:48:06.276Z,11.16
2018-12-20T16:50:34.662Z,11.66
2018-12-20T16:53:02.983Z,11.07
2018-12-20T16:55:31.629Z,11.59
2018-12-20T16:58:00.014Z,11.65
2018-12-20T17:00:28.270Z,11.32
2018-12-20T17:02:56.694Z,11.27
2018-12-20T17:05:25.088Z,11.20
2018-12-20T17:07:53.455Z,10.98
2018-12-20T17:10:21.792Z,11.02
2018-12-20T17:12:50.124Z,11.45
2018-12-20T17:15:18.764Z,11.47
2018-12-20T17:17:47.212Z,11.69
2018-12-20T17:20:15.513Z,11.31
2018-12-20T17:22:44.113Z,11.81
2018-12-20T17:25:12.485Z,11.39
2018-12-20T17:27:40.797Z,11.47
2018-12-20T17:30:10.297Z,12.01
2018-12-20T17:32:38.571Z,12.20
2018-12-20T17:35:06.852Z,12.37
2018-12-20T17:37:35.329Z,12.09
2018-12-20T17:40:03.774Z,11.99
2018-12-20T17:42:32.066Z,11.56
2018-12-20T17:45:00.383Z,11.76
2018-12-20T17:47:28.807Z,12.72
2018-12-20T17:49:57.096Z,12.42
2018-12-20T17:52:25.423Z,12.24
2018-12-20T17:54:53.830Z,11.38
2018-12-20T17:57:22.230Z,11.90
2018-12-20T17:59:50.596Z,12.79
2018-12-20T18:02:19.014Z,12.33
2018-12-20T18:04:47.372Z,12.22
2018-12-20T18:07:16.131Z,11.82
2018-12-20T18:09:44.734Z,11.77
2018-12-20T18:12:13.247Z,11.95
2018-12-20T18:14:41.606Z,12.29
2018-12-20T18:17:09.848Z,11.59
2018-12-20T18:19:39.184Z,12.01
2018-12-20T18:22:07.954Z,11.76
2018-12-20T18:24:36.290Z,11.65
2018-12-20T18:27:04.573Z,11.38
2018-12-20T18:29:33.020Z,11.87
2018-12-20T18:32:01.422Z,11.69
2018-12-20T18:34:29.742Z,12.14
2018-12-20T18:36:58.214Z,11.81
2018-12-20T18:39:26.624Z,12.43
2018-12-20T18:41:55.108Z,12.72
2018-12-20T18:44:23.390Z,12.65
2018-12-20T18:46:51.972Z,12.02
2018-12-20T18:49:20.447Z,11.94
2018-12-20T18:51:49.121Z,11.75
2018-12-20T18:54:17.578Z,11.90
2018-12-20T18:56:45.903Z,11.24
2018-12-20T18:59:14.302Z,11.62
2018-12-20T19:01:42.823Z,11.87
2018-12-20T19:04:11.156Z,11.65
2018-12-20T19:06:40.066Z,12.27
2018-12-20T19:09:08.346Z,12.24
2018-12-20T19:11:37.448Z,12.45
2018-12-20T19:14:05.854Z,11.87
2018-12-20T19:16:34.231Z,11.60
2018-12-20T19:19:02.531Z,11.18
2018-12-20T19:21:31.273Z,11.60
2018-12-20T19:24:00.094Z,11.54
2018-12-20T19:26:28.387Z,12.40
2018-12-20T19:28:56.779Z,11.59
2018-12-20T19:31:25.149Z,12.06
2018-12-20T19:33:53.536Z,11.79
2018-12-20T19:36:22.068Z,11.95
2018-12-20T19:38:50.688Z,11.12
2018-12-20T19:41:19.055Z,11.04
2018-12-20T19:43:47.526Z,11.41
2018-12-20T19:46:15.950Z,11.77
2018-12-20T19:48:44.349Z,12.18
2018-12-20T19:51:12.652Z,12.52
2018-12-20T19:53:41.012Z,12.13
2018-12-20T19:56:09.295Z,12.10
2018-12-20T19:58:37.798Z,11.60
2018-12-20T20:01:06.173Z,11.51
2018-12-20T20:03:34.599Z,11.56
2018-12-20T20:06:02.941Z,11.49
2018-12-20T20:08:31.231Z,11.74
2018-12-20T20:10:59.774Z,11.52
2018-12-20T20:13:30.918Z,11.33
2018-12-20T20:15:58.462Z,11.31
2018-12-20T20:18:26.788Z,11.29
2018-12-20T20:20:55.060Z,11.52
2018-12-20T20:23:23.731Z,11.67
2018-12-20T20:25:52.064Z,12.01
2018-12-20T20:28:21.029Z,12.17
2018-12-20T20:30:49.320Z,11.41
2018-12-20T20:33:17.626Z,11.63
2018-12-20T20:35:46.179Z,11.71
2018-12-20T20:38:14.483Z,11.99
2018-12-20T20:40:43.012Z,11.47
2018-12-20T20:43:11.431Z,11.40
2018-12-20T20:45:39.758Z,11.86
2018-12-20T20:48:08.388Z,12.67
2018-12-20T20:50:36.895Z,12.09
2018-12-20T20:53:05.521Z,11.64
2018-12-20T20:55:33.883Z,11.61
2018-12-20T20:58:02.531Z,12.63
2018-12-20T21:00:31.734Z,12.05
2018-12-20T21:03:00.193Z,12.31
2018-12-20T21:05:28.744Z,12.00
2018-12-20T21:07:57.309Z,12.17
2018-12-20T21:10:25.735Z,12.18
2018-12-20T21:12:54.250Z,12.11
2018-12-20T21:15:23.206Z,11.92
2018-12-20T21:17:51.596Z,11.77
2018-12-20T21:20:20.081Z,12.34
2018-12-20T21:22:48.642Z,12.59
2018-12-20T21:25:17.067Z,12.68
2018-12-20T21:27:45.482Z,12.67
2018-12-20T21:30:14.063Z,12.83
2018-12-20T21:32:42.430Z,13.04
2018-12-20T21:35:11.041Z,12.22
2018-12-20T21:37:39.537Z,12.36
2018-12-20T21:40:09.082Z,12.05
2018-12-20T21:42:37.465Z,12.19
2018-12-20T21:45:07.707Z,11.72
2018-12-20T21:47:35.995Z,11.48
2018-12-20T21:50:05.259Z,11.98
2018-12-20T21:52:33.702Z,11.82
2018-12-20T21:55:02.297Z,11.05
2018-12-20T21:57:30.677Z,11.29
2018-12-20T22:00:01.300Z,11.64
2018-12-20T22:02:29.449Z,11.41
2018-12-20T22:04:57.791Z,11.20
2018-12-20T22:07:26.219Z,11.58
2018-12-20T22:09:54.607Z,11.38
2018-12-20T22:12:23.050Z,11.23
2018-12-20T22:14:52.016Z,10.96
2018-12-20T22:17:20.644Z,10.95
2018-12-20T22:19:49.075Z,10.69
2018-12-20T22:22:17.334Z,10.50
2018-12-20T22:24:45.800Z,11.17
2018-12-20T22:27:14.193Z,11.30
2018-12-20T22:29:42.857Z,11.47
2018-12-20T22:32:11.252Z,11.06
2018-12-20T22:34:39.594Z,10.84
2018-12-20T22:37:07.934Z,10.76
2018-12-20T22:39:36.405Z,11.10
2018-12-20T22:42:04.944Z,10.96
2018-12-20T22:44:33.524Z,10.96
2018-12-20T22:47:02.083Z,11.21
2018-12-20T22:49:30.596Z,10.76
2018-12-20T22:51:59.051Z,11.67
2018-12-20T22:54:27.569Z,11.04
2018-12-20T22:56:56.280Z,11.53
2018-12-20T22:59:24.848Z,10.80
2018-12-20T23:01:53.356Z,11.01
2018-12-20T23:04:22.022Z,11.09
2018-12-20T23:06:50.580Z,11.08
2018-12-20T23:09:19.368Z,10.99
2018-12-20T23:11:47.831Z,11.61
2018-12-20T23:14:16.250Z,11.32
2018-12-20T23:16:53.382Z,11.94
2018-12-20T23:19:15.236Z,11.53
2018-12-20T23:21:44.106Z,11.03
2018-12-20T23:24:12.875Z,11.12
2018-12-20T23:26:41.162Z,11.81
2018-12-20T23:29:09.539Z,11.10
2018-12-20T23:31:38.090Z,11.25
2018-12-20T23:34:07.353Z,11.22
2018-12-20T23:36:35.849Z,11.06
2018-12-20T23:39:06.004Z,11.59
2018-12-20T23:41:35.412Z,11.86
2018-12-20T23:44:03.946Z,11.28
2018-12-20T23:46:32.214Z,11.65
2018-12-20T23:49:01.453Z,11.25
2018-12-20T23:51:29.824Z,10.88
2018-12-20T23:53:58.290Z,11.04
2018-12-20T23:56:26.642Z,11.43
2018-12-20T23:58:54.968Z,11.74
